Time;durP1;ratioP1;P1;durP2;ratioP2;P2;SDS_P1;SDS_P2;PMS_P1;PMS_P2;Temp;Humidity;BMP_temperature;BMP_pressure;BME280_temperature;BME280_humidity;BME280_pressure;Samples;Min_cycle;Max_cycle;Signal;HPM_P1;HPM_P2
2022/08/02 00:01:53;;;;;;;4.33;3.90;;;23.60;75.90;;;;;;5034769;28;20293;-71
2022/08/02 00:04:19;;;;;;;4.43;4.13;;;23.40;76.00;;;;;;5034292;28;20866;-71
2022/08/02 00:06:45;;;;;;;4.90;4.00;;;23.40;76.40;;;;;;5053650;28;20218;-71
2022/08/02 00:09:10;;;;;;;4.27;3.90;;;23.40;76.40;;;;;;5032427;28;20215;-71
2022/08/02 00:11:36;;;;;;;4.10;3.80;;;23.40;76.40;;;;;;5053505;28;20210;-71
2022/08/02 00:14:02;;;;;;;3.73;3.43;;;23.40;76.40;;;;;;5051832;28;20233;-71
2022/08/02 00:16:28;;;;;;;3.97;3.67;;;23.40;76.50;;;;;;5062255;28;20682;-72
2022/08/02 00:18:54;;;;;;;3.43;3.13;;;23.30;76.70;;;;;;5036034;28;20458;-71
2022/08/02 00:21:19;;;;;;;3.80;3.50;;;23.30;77.00;;;;;;5068753;28;20230;-71
2022/08/02 00:23:45;;;;;;;4.30;3.53;;;23.20;77.30;;;;;;5051865;28;20295;-71
2022/08/02 00:26:11;;;;;;;4.17;3.87;;;23.20;77.40;;;;;;5053005;28;20210;-71
2022/08/02 00:28:37;;;;;;;4.03;3.73;;;23.10;77.40;;;;;;5045395;28;20607;-71
2022/08/02 00:31:02;;;;;;;4.00;3.70;;;23.10;77.20;;;;;;5032245;28;20668;-71
2022/08/02 00:33:28;;;;;;;3.43;3.20;;;23.20;77.20;;;;;;5067956;28;20234;-71
2022/08/02 00:35:54;;;;;;;3.83;3.53;;;23.20;77.00;;;;;;5051072;28;20218;-71
2022/08/02 00:38:19;;;;;;;4.80;3.63;;;23.20;76.60;;;;;;5035126;28;20218;-72
2022/08/02 00:40:49;;;;;;;3.70;3.40;;;23.20;76.80;;;;;;5046407;28;20609;-71
2022/08/02 00:43:16;;;;;;;5.40;4.30;;;23.20;76.90;;;;;;5050598;28;20706;-71
2022/08/02 00:45:42;;;;;;;3.50;3.20;;;23.10;76.60;;;;;;5043847;28;20449;-72
2022/08/02 00:48:09;;;;;;;3.30;3.00;;;23.10;77.10;;;;;;5066936;28;20464;-71
2022/08/02 00:50:36;;;;;;;3.97;3.67;;;23.00;77.20;;;;;;5049188;28;20226;-71
2022/08/02 00:53:02;;;;;;;3.30;3.00;;;23.00;77.60;;;;;;5030443;28;20454;-70
2022/08/02 00:55:28;;;;;;;3.60;3.40;;;22.90;77.80;;;;;;5081646;28;20522;-71
2022/08/02 00:57:54;;;;;;;3.23;3.00;;;22.90;77.40;;;;;;5040785;28;20458;-71
2022/08/02 01:00:20;;;;;;;3.50;3.20;;;22.90;77.50;;;;;;5049565;28;20222;-70
2022/08/02 01:02:46;;;;;;;3.63;3.33;;;22.90;77.20;;;;;;5031063;28;20454;-71
2022/08/02 01:05:12;;;;;;;3.47;3.20;;;23.00;77.30;;;;;;5048483;28;20302;-69
2022/08/02 01:07:38;;;;;;;3.33;3.10;;;23.00;77.10;;;;;;5041857;28;21033;-72
2022/08/02 01:10:05;;;;;;;2.90;2.70;;;23.00;77.00;;;;;;5071578;28;20536;-70
2022/08/02 01:12:31;;;;;;;3.20;3.00;;;23.00;77.20;;;;;;5051516;28;20233;-71
2022/08/02 01:15:01;;;;;;;3.80;3.50;;;23.00;77.50;;;;;;5074285;28;20977;-71
2022/08/02 01:17:33;;;;;;;4.90;3.73;;;23.00;77.30;;;;;;5046342;28;20214;-71
2022/08/02 01:20:20;;;;;;;4.50;3.20;;;23.00;77.30;;;;;;5064600;28;20469;-71
2022/08/02 01:23:33;;;;;;;3.03;2.83;;;22.90;77.20;;;;;;5034267;28;20955;-71
2022/08/02 01:26:30;;;;;;;3.30;3.10;;;22.90;77.70;;;;;;5043058;28;20522;-71
2022/08/02 01:29:13;;;;;;;3.60;3.40;;;22.90;77.70;;;;;;5042233;28;20446;-72
2022/08/02 01:31:58;;;;;;;3.40;3.20;;;22.80;77.50;;;;;;5033580;28;20946;-71
2022/08/02 01:34:30;;;;;;;3.83;3.53;;;22.80;78.10;;;;;;5051500;28;20480;-72
2022/08/02 01:37:20;;;;;;;3.57;3.30;;;22.70;79.10;;;;;;5034901;28;20453;-71
2022/08/02 01:39:56;;;;;;;3.50;3.20;;;22.60;78.80;;;;;;5066172;28;20489;-71
2022/08/02 01:42:24;;;;;;;3.83;3.40;;;22.60;78.90;;;;;;5068462;28;20456;-71
2022/08/02 01:44:52;;;;;;;3.33;3.03;;;22.60;79.60;;;;;;5041771;28;20457;-70
2022/08/02 01:47:26;;;;;;;4.00;3.60;;;22.50;80.50;;;;;;5052551;28;20555;-71
2022/08/02 01:49:55;;;;;;;4.10;3.80;;;22.50;79.50;;;;;;5051496;28;20521;-71
2022/08/02 01:52:22;;;;;;;3.47;3.17;;;22.50;79.80;;;;;;5051493;28;20492;-71
2022/08/02 01:55:03;;;;;;;3.80;3.37;;;22.40;80.30;;;;;;5051015;28;20536;-71
2022/08/02 01:57:54;;;;;;;3.90;3.63;;;22.40;80.50;;;;;;5050953;28;20455;-72
2022/08/02 02:00:22;;;;;;;3.50;3.20;;;22.30;80.70;;;;;;5047298;28;20469;-71
2022/08/02 02:02:52;;;;;;;4.03;3.73;;;22.30;80.80;;;;;;5050412;28;20973;-71
2022/08/02 02:05:22;;;;;;;3.57;3.27;;;22.30;81.00;;;;;;5035071;28;20529;-71
2022/08/02 02:07:51;;;;;;;4.13;3.83;;;22.30;80.60;;;;;;5020111;28;20793;-72
2022/08/02 02:10:23;;;;;;;3.63;3.33;;;22.30;80.30;;;;;;5069535;28;20864;-71
2022/08/02 02:12:50;;;;;;;4.10;3.80;;;22.30;80.00;;;;;;5068480;28;20987;-71
2022/08/02 02:15:16;;;;;;;4.03;3.73;;;22.30;80.20;;;;;;5051013;28;20472;-71
2022/08/02 02:17:45;;;;;;;4.53;3.70;;;22.30;80.00;;;;;;5047516;28;20965;-71
2022/08/02 02:20:14;;;;;;;7.23;3.60;;;22.20;80.30;;;;;;5031061;28;20514;-71
2022/08/02 02:22:40;;;;;;;3.63;3.43;;;22.20;80.90;;;;;;5043531;28;20528;-71
2022/08/02 02:25:08;;;;;;;3.00;2.80;;;22.20;80.70;;;;;;5022404;28;20949;-71
2022/08/02 02:27:36;;;;;;;3.90;3.47;;;22.20;80.50;;;;;;5022591;28;20445;-71
2022/08/02 02:30:03;;;;;;;4.00;3.60;;;22.20;80.40;;;;;;5051777;28;20455;-71
2022/08/02 02:32:30;;;;;;;4.40;4.10;;;22.20;80.00;;;;;;5048685;28;20481;-71
2022/08/02 02:34:58;;;;;;;3.73;3.50;;;22.20;80.50;;;;;;5033838;28;20835;-71
2022/08/02 02:37:26;;;;;;;4.80;3.60;;;22.20;80.40;;;;;;5033222;28;21061;-71
2022/08/02 02:39:54;;;;;;;4.77;4.27;;;22.20;80.60;;;;;;5031378;28;20548;-71
2022/08/02 02:42:25;;;;;;;5.27;3.50;;;22.20;80.70;;;;;;5068020;28;20484;-71
2022/08/02 02:44:52;;;;;;;3.80;3.50;;;22.20;80.70;;;;;;5073315;28;21022;-71
2022/08/02 02:47:20;;;;;;;3.67;3.47;;;22.10;80.00;;;;;;5044518;28;20499;-71
2022/08/02 02:49:47;;;;;;;3.10;2.90;;;22.10;80.00;;;;;;5046031;28;21026;-71
2022/08/02 02:52:15;;;;;;;3.40;3.17;;;22.10;80.20;;;;;;5061281;28;20530;-71
2022/08/02 02:54:42;;;;;;;3.60;3.30;;;22.10;80.20;;;;;;5063161;28;20460;-71
2022/08/02 02:57:09;;;;;;;3.70;3.23;;;22.10;80.00;;;;;;5050460;28;20812;-71
2022/08/02 02:59:37;;;;;;;4.37;3.80;;;22.10;80.20;;;;;;5067971;28;21070;-71
2022/08/02 03:02:05;;;;;;;3.23;3.03;;;22.10;80.10;;;;;;5060638;28;20460;-72
2022/08/02 03:04:31;;;;;;;4.20;3.90;;;22.10;80.30;;;;;;5050182;28;20522;-71
2022/08/02 03:06:58;;;;;;;3.50;3.30;;;22.10;80.10;;;;;;5051140;28;20457;-72
2022/08/02 03:09:24;;;;;;;3.40;3.10;;;22.10;80.30;;;;;;5069776;28;20483;-71
2022/08/02 03:11:51;;;;;;;2.90;2.73;;;22.00;81.10;;;;;;5021268;28;20813;-71
2022/08/02 03:14:17;;;;;;;3.90;3.60;;;22.00;80.30;;;;;;5048144;28;20203;-71
2022/08/02 03:16:52;;;;;;;3.57;3.37;;;22.00;80.00;;;;;;5034703;28;20459;-72
2022/08/02 03:19:19;;;;;;;3.33;3.13;;;22.00;80.20;;;;;;5049854;28;20460;-71
2022/08/02 03:21:46;;;;;;;3.57;3.37;;;22.00;80.20;;;;;;5031720;28;20531;-72
2022/08/02 03:24:13;;;;;;;3.60;3.40;;;22.00;80.20;;;;;;5047500;28;20441;-70
2022/08/02 03:26:39;;;;;;;4.20;3.90;;;22.00;80.50;;;;;;5047759;28;20453;-71
2022/08/02 03:29:06;;;;;;;4.10;3.80;;;22.00;80.70;;;;;;5047626;28;20946;-71
2022/08/02 03:31:32;;;;;;;3.40;3.20;;;22.00;80.20;;;;;;5068135;28;20449;-71
2022/08/02 03:33:59;;;;;;;4.23;3.93;;;21.90;80.30;;;;;;5032811;28;20528;-71
2022/08/02 03:36:29;;;;;;;4.70;4.30;;;21.90;80.50;;;;;;5024416;28;20221;-71
2022/08/02 03:38:56;;;;;;;3.40;3.20;;;21.90;80.40;;;;;;5052177;28;21049;-71
2022/08/02 03:41:22;;;;;;;3.87;3.57;;;21.90;80.60;;;;;;5050978;28;20479;-71
2022/08/02 03:43:49;;;;;;;4.13;3.83;;;21.90;80.50;;;;;;5033847;28;20450;-72
2022/08/02 03:46:17;;;;;;;5.47;3.63;;;21.80;80.70;;;;;;5034026;28;20472;-70
2022/08/02 03:48:43;;;;;;;4.60;4.10;;;21.90;80.70;;;;;;5041448;28;20465;-71
2022/08/02 03:51:09;;;;;;;4.10;3.80;;;21.80;80.70;;;;;;5051210;28;20464;-71
2022/08/02 03:53:36;;;;;;;4.10;3.70;;;21.80;80.80;;;;;;5065889;28;20821;-70
2022/08/02 03:56:04;;;;;;;3.70;3.50;;;21.80;80.60;;;;;;5050210;28;20453;-72
2022/08/02 03:58:30;;;;;;;4.80;4.40;;;21.80;80.10;;;;;;5033290;28;20485;-71
2022/08/02 04:00:57;;;;;;;4.37;4.00;;;21.80;80.90;;;;;;5033817;28;20876;-71
2022/08/02 04:03:23;;;;;;;3.57;3.27;;;21.70;80.60;;;;;;5051892;28;20221;-71
2022/08/02 04:05:49;;;;;;;4.13;3.80;;;21.70;80.40;;;;;;5050012;28;20450;-71
2022/08/02 04:08:15;;;;;;;4.30;4.00;;;21.70;80.50;;;;;;5051294;28;20444;-71
2022/08/02 04:13:29;;;;;;;4.53;4.17;;;21.70;81.00;;;;;;5053269;28;20554;-71
2022/08/02 04:16:02;;;;;;;4.27;3.97;;;21.70;81.00;;;;;;5036164;28;20479;-71
2022/08/02 04:18:36;;;;;;;4.27;3.97;;;21.60;81.00;;;;;;5054683;28;20980;-71
2022/08/02 04:21:03;;;;;;;3.87;3.60;;;21.60;80.90;;;;;;5049797;28;20497;-72
2022/08/02 04:23:31;;;;;;;4.00;3.60;;;21.60;81.10;;;;;;5052855;28;20483;-71
2022/08/02 04:25:59;;;;;;;4.10;3.90;;;21.60;80.90;;;;;;5052113;28;20571;-71
2022/08/02 04:28:26;;;;;;;4.00;3.70;;;21.60;81.00;;;;;;5056091;28;20830;-71
2022/08/02 04:30:52;;;;;;;4.27;3.97;;;21.60;81.30;;;;;;5053397;28;20461;-71
2022/08/02 04:33:18;;;;;;;3.70;3.50;;;21.60;81.30;;;;;;5069602;28;20475;-71
2022/08/02 04:35:44;;;;;;;4.20;3.90;;;21.50;81.80;;;;;;5070758;28;20973;-71
2022/08/02 04:38:13;;;;;;;4.37;4.07;;;21.50;81.30;;;;;;5052801;28;20219;-71
2022/08/02 04:40:39;;;;;;;4.70;4.30;;;21.50;81.80;;;;;;5063914;28;20477;-71
2022/08/02 04:43:06;;;;;;;4.83;4.43;;;21.50;81.80;;;;;;5026771;28;20448;-71
2022/08/02 04:45:32;;;;;;;4.47;4.17;;;21.50;82.00;;;;;;5053569;28;20317;-71
2022/08/02 04:47:57;;;;;;;4.70;4.27;;;21.40;82.90;;;;;;5070274;28;20541;-71
2022/08/02 04:50:23;;;;;;;4.13;3.80;;;21.50;82.50;;;;;;5071321;28;20230;-71
2022/08/02 04:52:49;;;;;;;7.50;4.30;;;21.50;81.80;;;;;;5063900;28;20207;-71
2022/08/02 04:55:14;;;;;;;4.23;3.93;;;21.50;82.70;;;;;;5052191;28;20639;-70
2022/08/02 04:57:56;;;;;;;4.57;4.17;;;21.40;83.00;;;;;;5053666;28;20219;-71
2022/08/02 05:00:23;;;;;;;4.33;4.00;;;21.40;83.20;;;;;;5068441;28;20334;-71
2022/08/02 05:02:51;;;;;;;4.27;3.97;;;21.40;83.60;;;;;;5052544;28;20445;-71
2022/08/02 05:05:17;;;;;;;5.27;4.77;;;21.40;83.30;;;;;;5036331;28;20453;-72
2022/08/02 05:07:43;;;;;;;4.80;4.40;;;21.40;83.30;;;;;;5033322;28;21047;-71
2022/08/02 05:10:09;;;;;;;5.30;4.90;;;21.40;82.70;;;;;;5067198;28;20227;-71
2022/08/02 05:12:37;;;;;;;4.17;3.90;;;21.40;83.00;;;;;;5069830;28;20219;-71
2022/08/02 05:15:03;;;;;;;5.27;4.37;;;21.40;83.40;;;;;;5046373;28;20434;-72
2022/08/02 05:17:29;;;;;;;4.07;3.77;;;21.40;82.90;;;;;;5069573;28;20465;-71
2022/08/02 05:19:54;;;;;;;4.87;4.47;;;21.30;84.50;;;;;;5035229;28;20466;-71
2022/08/02 05:22:20;;;;;;;4.10;3.73;;;21.30;84.80;;;;;;5052374;28;20222;-71
2022/08/02 05:24:46;;;;;;;4.13;3.83;;;21.30;84.90;;;;;;5049793;28;20355;-71
2022/08/02 05:27:11;;;;;;;4.27;3.97;;;21.30;84.60;;;;;;5055477;28;20207;-72
2022/08/02 05:29:40;;;;;;;4.63;4.33;;;21.30;84.90;;;;;;5073195;28;20313;-71
2022/08/02 05:32:06;;;;;;;4.93;4.53;;;21.30;85.60;;;;;;5055523;28;20230;-71
2022/08/02 05:34:31;;;;;;;4.73;4.43;;;21.30;85.80;;;;;;5051646;28;20449;-71
2022/08/02 05:36:57;;;;;;;5.23;4.83;;;21.30;85.40;;;;;;5049474;28;20219;-71
2022/08/02 05:39:23;;;;;;;4.93;4.47;;;21.30;85.80;;;;;;5069073;28;20215;-73
2022/08/02 05:41:48;;;;;;;4.63;4.33;;;21.30;86.40;;;;;;5031477;28;20238;-71
2022/08/02 05:44:14;;;;;;;5.30;4.90;;;21.40;85.70;;;;;;5043004;28;20222;-71
2022/08/02 05:46:40;;;;;;;5.53;5.13;;;21.30;86.20;;;;;;5061059;28;20721;-73
2022/08/02 05:49:05;;;;;;;4.93;4.53;;;21.30;86.80;;;;;;5051422;28;20694;-71
2022/08/02 05:51:38;;;;;;;5.00;4.60;;;21.30;87.60;;;;;;5052713;28;20225;-71
2022/08/02 05:54:16;;;;;;;4.67;4.30;;;21.30;88.10;;;;;;5044011;28;20219;-72
2022/08/02 05:56:44;;;;;;;5.37;4.87;;;21.30;88.00;;;;;;5035324;28;20445;-71
2022/08/02 05:59:32;;;;;;;5.73;5.10;;;21.40;88.00;;;;;;5025634;28;20445;-72
2022/08/02 06:02:02;;;;;;;6.00;5.50;;;21.40;88.80;;;;;;5046153;28;20453;-71
2022/08/02 06:05:01;;;;;;;5.17;4.80;;;21.40;90.00;;;;;;5050736;28;20445;-72
2022/08/02 06:07:29;;;;;;;5.23;4.73;;;21.40;90.50;;;;;;5047313;28;20449;-72
2022/08/02 06:09:56;;;;;;;5.93;5.43;;;21.40;90.20;;;;;;5052124;28;20503;-71
2022/08/02 06:12:27;;;;;;;6.20;3.90;;;21.40;89.60;;;;;;5049410;28;20446;-71
2022/08/02 06:14:55;;;;;;;5.67;5.17;;;21.40;89.10;;;;;;5051002;28;20449;-72
2022/08/02 06:17:20;;;;;;;4.27;3.97;;;21.50;89.50;;;;;;5052264;28;20434;-71
2022/08/02 06:19:47;;;;;;;4.60;4.30;;;21.50;89.50;;;;;;5050437;28;20473;-71
2022/08/02 06:22:15;;;;;;;4.80;4.50;;;21.60;89.30;;;;;;5064265;28;20230;-72
2022/08/02 06:24:45;;;;;;;4.73;4.33;;;21.60;89.20;;;;;;5052311;28;20453;-71
2022/08/02 06:27:15;;;;;;;4.83;4.50;;;21.60;89.50;;;;;;5051807;28;20444;-71
2022/08/02 06:29:43;;;;;;;5.43;4.83;;;21.60;89.40;;;;;;5044746;28;20458;-71
2022/08/02 06:32:09;;;;;;;5.50;4.30;;;21.60;89.60;;;;;;5030094;28;20456;-71
2022/08/02 06:34:39;;;;;;;3.83;3.53;;;21.60;89.40;;;;;;5057457;28;20450;-71
2022/08/02 06:37:33;;;;;;;4.63;4.33;;;21.70;89.70;;;;;;5038335;28;20437;-71
2022/08/02 06:40:11;;;;;;;5.50;5.10;;;21.70;89.70;;;;;;5046562;28;20478;-71
2022/08/02 06:42:51;;;;;;;4.30;4.00;;;21.70;89.40;;;;;;5047653;28;20488;-71
2022/08/02 06:45:17;;;;;;;5.93;4.43;;;21.80;89.60;;;;;;5038274;28;21000;-70
2022/08/02 06:47:43;;;;;;;5.30;4.80;;;21.80;89.70;;;;;;5049832;28;20437;-70
2022/08/02 06:50:10;;;;;;;4.83;4.43;;;21.90;89.70;;;;;;5048623;28;20230;-72
2022/08/02 06:52:36;;;;;;;4.90;4.50;;;21.90;89.80;;;;;;5046108;28;20567;-71
2022/08/02 06:55:04;;;;;;;5.57;5.17;;;21.90;89.50;;;;;;5051192;28;20473;-72
2022/08/02 06:57:30;;;;;;;5.13;4.70;;;22.00;90.00;;;;;;5051101;28;20485;-72
2022/08/02 06:59:57;;;;;;;4.50;4.20;;;22.00;90.30;;;;;;5046573;28;20607;-72
2022/08/02 07:02:23;;;;;;;5.00;4.60;;;22.10;90.50;;;;;;5050835;28;21027;-72
2022/08/02 07:04:49;;;;;;;5.07;4.67;;;22.20;90.80;;;;;;5045616;28;20441;-72
2022/08/02 07:07:15;;;;;;;4.63;4.23;;;22.30;91.70;;;;;;5051337;28;20532;-71
2022/08/02 07:09:40;;;;;;;5.07;4.67;;;22.30;91.20;;;;;;5064704;28;20544;-71
2022/08/02 07:12:06;;;;;;;5.27;4.83;;;22.40;91.50;;;;;;5026505;28;20283;-71
2022/08/02 07:14:32;;;;;;;4.67;4.27;;;22.40;91.60;;;;;;5049752;28;20668;-71
2022/08/02 07:16:58;;;;;;;4.63;4.23;;;22.50;91.70;;;;;;5032031;28;20214;-72
2022/08/02 07:19:23;;;;;;;4.83;4.43;;;22.60;91.50;;;;;;5032175;28;20219;-72
2022/08/02 07:21:49;;;;;;;4.87;4.47;;;22.60;91.50;;;;;;5050523;28;20226;-71
2022/08/02 07:24:15;;;;;;;4.47;4.10;;;22.70;91.20;;;;;;5068326;28;20226;-71
2022/08/02 07:26:40;;;;;;;4.30;3.90;;;22.70;90.90;;;;;;5043886;28;20244;-71
2022/08/02 07:29:06;;;;;;;4.30;3.90;;;22.70;90.50;;;;;;5055253;28;20794;-71
2022/08/02 07:31:31;;;;;;;4.53;4.13;;;22.70;90.80;;;;;;5032673;28;20239;-72
2022/08/02 07:33:57;;;;;;;4.87;3.33;;;22.80;90.50;;;;;;5055915;28;20211;-71
2022/08/02 07:36:23;;;;;;;3.50;3.30;;;22.80;90.10;;;;;;5067485;28;20221;-70
2022/08/02 07:38:49;;;;;;;3.60;3.30;;;22.90;90.10;;;;;;5046533;28;20228;-71
2022/08/02 07:41:15;;;;;;;3.70;3.40;;;23.00;89.30;;;;;;5048119;28;20230;-71
2022/08/02 07:43:40;;;;;;;4.97;2.90;;;23.00;88.70;;;;;;5069968;28;20229;-71
2022/08/02 07:46:06;;;;;;;3.60;3.30;;;23.10;88.70;;;;;;5051063;28;20218;-70
2022/08/02 07:48:32;;;;;;;3.90;3.60;;;23.20;88.20;;;;;;5054295;28;20213;-71
2022/08/02 07:50:58;;;;;;;2.90;2.70;;;23.20;85.50;;;;;;5038036;28;20602;-71
2022/08/02 07:53:23;;;;;;;3.60;3.30;;;23.30;86.70;;;;;;5037820;28;20222;-71
2022/08/02 07:55:50;;;;;;;3.43;3.20;;;23.40;87.30;;;;;;5029669;28;20207;-71
2022/08/02 07:58:15;;;;;;;3.30;3.10;;;23.50;84.50;;;;;;5070424;28;20221;-71
2022/08/02 08:00:43;;;;;;;4.50;2.83;;;23.50;84.10;;;;;;5053774;28;20477;-71
2022/08/02 08:03:08;;;;;;;4.13;2.57;;;23.70;83.70;;;;;;5041124;28;20222;-72
2022/08/02 08:05:35;;;;;;;2.53;2.37;;;23.70;82.60;;;;;;5054160;28;20459;-71
2022/08/02 08:08:00;;;;;;;2.73;2.57;;;23.80;82.20;;;;;;5052486;28;20210;-71
2022/08/02 08:10:26;;;;;;;2.90;2.70;;;23.80;81.80;;;;;;5072539;28;20888;-71
2022/08/02 08:12:53;;;;;;;3.50;3.30;;;23.90;82.20;;;;;;5035688;28;20238;-71
2022/08/02 08:15:20;;;;;;;3.00;2.80;;;23.90;82.00;;;;;;5049458;28;20222;-71
2022/08/02 08:17:45;;;;;;;3.10;2.47;;;24.00;81.90;;;;;;5081293;28;20449;-71
2022/08/02 08:20:11;;;;;;;2.70;2.50;;;24.20;81.90;;;;;;5050077;28;21022;-71
2022/08/02 08:22:37;;;;;;;2.83;2.63;;;24.30;81.40;;;;;;5053745;28;20212;-71
2022/08/02 08:25:03;;;;;;;2.40;2.30;;;24.40;80.50;;;;;;5047113;28;20260;-71
2022/08/02 08:27:29;;;;;;;3.00;2.80;;;24.50;80.50;;;;;;5042399;28;20228;-72
2022/08/02 08:29:54;;;;;;;2.20;2.10;;;24.60;79.00;;;;;;5052684;28;20219;-71
2022/08/02 08:32:20;;;;;;;2.60;2.40;;;24.60;77.00;;;;;;5068943;28;20678;-71
2022/08/02 08:34:46;;;;;;;2.30;2.20;;;24.60;77.70;;;;;;5053190;28;20725;-71
2022/08/02 08:37:12;;;;;;;2.13;2.03;;;24.80;78.30;;;;;;5067887;28;20206;-71
2022/08/02 08:39:38;;;;;;;2.53;2.40;;;24.90;77.80;;;;;;5053311;28;20215;-72
2022/08/02 08:42:07;;;;;;;2.40;2.20;;;25.00;77.30;;;;;;5050801;28;25041;-72
2022/08/02 08:44:36;;;;;;;2.47;2.23;;;25.20;76.10;;;;;;5052829;28;20829;-71
2022/08/02 08:47:03;;;;;;;2.70;2.60;;;25.30;76.20;;;;;;5044650;28;20459;-69
2022/08/02 08:49:43;;;;;;;2.60;2.20;;;25.40;76.20;;;;;;5071300;28;20463;-69
2022/08/02 08:52:10;;;;;;;2.90;2.63;;;25.50;75.60;;;;;;5052198;28;20437;-69
2022/08/02 08:54:38;;;;;;;2.80;2.60;;;25.60;75.30;;;;;;5049810;28;20449;-69
2022/08/02 08:57:05;;;;;;;2.57;2.47;;;25.70;75.40;;;;;;5052330;28;20441;-69
2022/08/02 08:59:31;;;;;;;2.03;1.93;;;25.70;74.10;;;;;;5030374;28;20468;-68
2022/08/02 09:01:57;;;;;;;2.57;2.47;;;25.70;73.90;;;;;;5050080;28;20461;-70
2022/08/02 09:04:23;;;;;;;3.10;2.87;;;25.90;74.10;;;;;;5050993;28;20216;-69
2022/08/02 09:06:48;;;;;;;2.97;2.77;;;25.90;72.20;;;;;;5035437;28;20458;-69
2022/08/02 09:09:14;;;;;;;2.50;2.40;;;26.00;73.30;;;;;;5034846;28;20216;-69
2022/08/02 09:11:40;;;;;;;2.73;2.53;;;26.00;72.70;;;;;;5032604;28;20207;-69
2022/08/02 09:14:05;;;;;;;2.63;2.43;;;26.10;73.30;;;;;;5047006;28;20217;-69
2022/08/02 09:16:35;;;;;;;2.03;1.93;;;26.20;73.20;;;;;;5067398;28;20211;-69
2022/08/02 09:19:22;;;;;;;2.50;2.30;;;26.30;71.80;;;;;;5051716;28;20229;-69
2022/08/02 09:21:50;;;;;;;2.10;2.00;;;26.50;72.40;;;;;;5024947;28;20985;-69
2022/08/02 09:24:19;;;;;;;3.17;2.70;;;26.50;70.80;;;;;;5065198;28;20221;-70
2022/08/02 09:26:46;;;;;;;2.43;2.33;;;26.70;70.40;;;;;;5034973;28;20439;-69
2022/08/02 09:29:13;;;;;;;2.37;2.10;;;26.80;68.90;;;;;;5073526;28;20444;-69
2022/08/02 09:31:38;;;;;;;2.47;2.37;;;26.90;70.60;;;;;;5050568;28;20598;-69
2022/08/02 09:34:04;;;;;;;2.37;2.17;;;27.00;70.50;;;;;;5052352;28;20728;-69
2022/08/02 09:36:44;;;;;;;2.90;2.70;;;27.10;70.30;;;;;;5051747;28;20285;-69
2022/08/02 09:39:13;;;;;;;2.70;2.50;;;27.20;68.70;;;;;;5080940;28;20735;-68
2022/08/02 09:41:41;;;;;;;2.33;2.20;;;27.30;69.70;;;;;;5057086;28;20638;-69
2022/08/02 09:44:09;;;;;;;2.50;2.40;;;27.60;68.80;;;;;;5046226;28;20281;-69
2022/08/02 09:46:38;;;;;;;2.78;2.67;;;27.80;67.60;;;;;;5051864;28;20315;-68
2022/08/02 09:49:13;;;;;;;2.67;2.47;;;27.90;67.10;;;;;;5052247;28;20247;-68
2022/08/02 09:51:50;;;;;;;3.28;2.72;;;28.10;65.80;;;;;;5024290;28;20254;-69
2022/08/02 09:54:20;;;;;;;2.85;2.67;;;28.20;65.80;;;;;;5047817;28;20275;-71
2022/08/02 09:56:48;;;;;;;2.55;2.35;;;28.30;65.90;;;;;;5029345;28;20217;-68
2022/08/02 09:59:15;;;;;;;2.70;2.50;;;28.40;65.80;;;;;;5051769;28;20231;-69
2022/08/02 10:01:43;;;;;;;2.40;2.30;;;28.50;65.20;;;;;;5050492;28;20240;-70
2022/08/02 10:04:11;;;;;;;2.70;2.60;;;28.50;65.50;;;;;;5068064;28;20232;-69
2022/08/02 10:06:38;;;;;;;2.40;2.30;;;28.50;66.00;;;;;;5069183;28;20225;-69
2022/08/02 10:09:05;;;;;;;2.88;2.67;;;28.70;65.20;;;;;;5047402;28;20230;-69
2022/08/02 10:11:32;;;;;;;2.60;2.45;;;28.80;64.60;;;;;;5051102;28;20266;-70
2022/08/02 10:13:58;;;;;;;2.30;2.20;;;28.90;64.70;;;;;;5067346;28;20654;-69
2022/08/02 10:16:24;;;;;;;2.42;2.33;;;28.90;63.80;;;;;;5032635;28;20227;-69
2022/08/02 10:18:53;;;;;;;2.30;2.20;;;28.90;64.70;;;;;;5069270;28;20220;-69
2022/08/02 10:21:31;;;;;;;2.63;2.42;;;29.10;64.20;;;;;;5063993;28;20238;-69
2022/08/02 10:24:23;;;;;;;2.47;2.38;;;29.20;62.60;;;;;;5047060;28;20310;-69
2022/08/02 10:26:49;;;;;;;3.88;2.10;;;29.20;62.40;;;;;;5071375;28;20251;-72
2022/08/02 10:29:17;;;;;;;2.38;2.28;;;29.30;62.50;;;;;;5068759;28;20845;-69
2022/08/02 10:31:49;;;;;;;2.78;2.60;;;29.30;63.10;;;;;;5044941;28;20601;-72
2022/08/02 10:34:18;;;;;;;2.30;2.20;;;29.40;62.70;;;;;;5064802;28;20272;-69
2022/08/02 10:36:46;;;;;;;2.28;2.10;;;29.70;61.50;;;;;;5031847;28;20231;-69
2022/08/02 10:39:12;;;;;;;2.13;2.03;;;29.80;61.80;;;;;;5042457;28;20239;-69
2022/08/02 10:41:45;;;;;;;2.30;2.17;;;29.80;61.10;;;;;;5045857;28;20230;-69
2022/08/02 10:44:20;;;;;;;2.28;2.17;;;29.90;61.30;;;;;;5028493;28;20852;-68
2022/08/02 10:46:45;;;;;;;2.25;2.15;;;30.20;59.40;;;;;;5047183;28;20229;-69
2022/08/02 10:49:12;;;;;;;2.00;1.90;;;30.30;58.70;;;;;;5046348;28;20286;-69
2022/08/02 10:51:53;;;;;;;2.42;2.30;;;30.50;58.70;;;;;;5045212;28;20315;-69
2022/08/02 10:54:24;;;;;;;2.10;2.00;;;30.50;59.00;;;;;;5062993;28;20308;-70
2022/08/02 10:56:54;;;;;;;2.20;2.10;;;30.50;58.60;;;;;;5063155;28;20288;-69
2022/08/02 10:59:25;;;;;;;2.53;2.42;;;30.40;58.40;;;;;;5060902;28;20232;-69
2022/08/02 11:01:55;;;;;;;3.00;2.80;;;30.40;58.50;;;;;;5036581;28;20312;-69
2022/08/02 11:04:21;;;;;;;2.50;2.30;;;30.30;58.60;;;;;;5048323;28;20216;-72
2022/08/02 11:07:16;;;;;;;2.10;2.00;;;30.10;58.20;;;;;;5030275;28;20701;-69
2022/08/02 11:09:46;;;;;;;2.25;2.15;;;30.10;57.90;;;;;;5044884;28;20298;-69
2022/08/02 11:12:14;;;;;;;2.28;2.17;;;30.20;58.30;;;;;;5049240;28;20221;-68
2022/08/02 11:14:56;;;;;;;2.58;2.30;;;30.30;58.40;;;;;;5061904;28;20250;-69
2022/08/02 11:17:23;;;;;;;2.80;2.60;;;30.50;58.10;;;;;;5025861;28;20219;-70
2022/08/02 11:20:10;;;;;;;2.45;2.25;;;30.50;57.20;;;;;;5060426;28;20278;-70
2022/08/02 11:22:37;;;;;;;2.20;2.10;;;30.60;58.00;;;;;;5034602;28;20271;-69
2022/08/02 11:25:21;;;;;;;2.20;2.10;;;30.90;56.40;;;;;;5052143;28;20230;-69
2022/08/02 11:27:55;;;;;;;1.90;1.80;;;31.30;56.30;;;;;;5072634;28;20217;-69
2022/08/02 11:30:21;;;;;;;2.20;2.08;;;31.40;56.20;;;;;;5066852;28;20221;-69
2022/08/02 11:32:48;;;;;;;2.20;2.10;;;31.50;56.40;;;;;;5052257;28;20203;-69
2022/08/02 11:35:14;;;;;;;2.13;2.03;;;31.50;56.30;;;;;;5051507;28;20263;-69
2022/08/02 11:37:44;;;;;;;2.70;2.50;;;31.70;55.30;;;;;;5034058;28;20254;-69
2022/08/02 11:40:16;;;;;;;2.20;2.10;;;31.80;55.60;;;;;;5029675;28;20254;-68
2022/08/02 11:42:44;;;;;;;2.20;2.10;;;31.80;55.50;;;;;;5044908;28;20268;-69
2022/08/02 11:45:14;;;;;;;2.60;2.47;;;31.80;55.40;;;;;;5032535;28;20226;-69
2022/08/02 11:47:48;;;;;;;2.50;2.40;;;31.80;55.70;;;;;;5048542;28;20223;-69
2022/08/02 11:50:14;;;;;;;3.78;2.40;;;31.90;55.50;;;;;;5049677;28;20253;-68
2022/08/02 11:52:40;;;;;;;2.60;2.42;;;31.80;55.40;;;;;;5051825;28;20222;-69
2022/08/02 11:55:07;;;;;;;2.13;2.03;;;31.80;56.00;;;;;;5051396;28;20280;-69
2022/08/02 11:57:33;;;;;;;2.30;2.17;;;31.80;56.10;;;;;;5053183;28;20247;-69
2022/08/02 11:59:59;;;;;;;2.42;2.33;;;32.20;54.90;;;;;;5052649;28;20231;-69
2022/08/02 12:02:30;;;;;;;2.50;2.40;;;32.30;55.30;;;;;;5033163;28;20207;-69
2022/08/02 12:05:06;;;;;;;2.63;2.47;;;32.40;55.30;;;;;;5064038;28;20242;-69
2022/08/02 12:07:32;;;;;;;2.85;2.60;;;32.50;54.90;;;;;;5074809;28;20240;-70
2022/08/02 12:10:04;;;;;;;2.28;2.17;;;32.50;54.80;;;;;;5052877;28;20226;-70
2022/08/02 12:12:30;;;;;;;2.20;2.10;;;32.50;54.60;;;;;;5051306;28;20319;-69
2022/08/02 12:14:55;;;;;;;2.28;2.17;;;32.30;54.50;;;;;;5045934;28;20298;-69
2022/08/02 12:20:11;;;;;;;2.50;2.30;;;32.20;54.80;;;;;;5058439;28;20307;-69
2022/08/02 12:22:37;;;;;;;2.60;2.50;;;31.90;53.90;;;;;;5039049;28;20338;-69
2022/08/02 12:25:21;;;;;;;2.72;2.50;;;31.90;54.90;;;;;;5052835;28;20208;-69
2022/08/02 12:27:47;;;;;;;3.20;2.95;;;31.80;54.40;;;;;;5046498;28;20252;-69
2022/08/02 12:30:16;;;;;;;2.00;1.90;;;31.80;54.80;;;;;;5036361;28;20252;-70
2022/08/02 12:32:43;;;;;;;2.80;2.60;;;32.10;54.60;;;;;;5033123;28;20337;-69
2022/08/02 12:35:21;;;;;;;2.53;2.33;;;32.60;54.40;;;;;;5049187;28;20773;-69
2022/08/02 12:37:48;;;;;;;2.60;2.50;;;32.80;54.00;;;;;;5050345;28;20213;-69
2022/08/02 12:40:25;;;;;;;2.70;2.60;;;32.90;54.40;;;;;;5053276;28;20651;-70
2022/08/02 12:43:02;;;;;;;2.30;2.20;;;33.00;54.10;;;;;;5047377;28;20318;-69
2022/08/02 12:45:31;;;;;;;2.28;2.17;;;33.00;54.30;;;;;;5046029;28;20215;-70
2022/08/02 12:47:58;;;;;;;2.65;2.55;;;33.20;53.80;;;;;;5027829;28;20222;-69
2022/08/02 12:50:23;;;;;;;2.40;2.30;;;33.30;54.10;;;;;;5050172;28;20276;-70
2022/08/02 12:52:49;;;;;;;2.70;2.58;;;33.20;53.80;;;;;;5049280;28;20616;-69
2022/08/02 12:55:27;;;;;;;2.03;1.92;;;33.30;54.20;;;;;;5048458;28;20211;-69
2022/08/02 12:58:00;;;;;;;2.40;2.30;;;33.40;53.70;;;;;;5047399;28;20246;-69
2022/08/02 13:00:35;;;;;;;2.67;2.50;;;33.30;53.80;;;;;;5065819;28;20751;-69
2022/08/02 13:03:02;;;;;;;2.60;2.40;;;33.40;54.00;;;;;;5052132;28;20276;-69